sensor_id;sensor_type;location;lat;lon;timestamp;P1;durP1;ratioP1;P2;durP2;ratioP2
43014;SDS011;28637;50.554;7.032;2023-05-14T00:04:52;6.57;;;4.97;;
43014;SDS011;28637;50.554;7.032;2023-05-14T00:09:52;8.63;;;4.90;;
43014;SDS011;28637;50.554;7.032;2023-05-14T00:14:53;8.70;;;4.93;;
43014;SDS011;28637;50.554;7.032;2023-05-14T00:19:54;6.50;;;4.65;;
43014;SDS011;28637;50.554;7.032;2023-05-14T00:24:54;5.95;;;4.57;;
43014;SDS011;28637;50.554;7.032;2023-05-14T00:29:55;7.23;;;3.90;;
43014;SDS011;28637;50.554;7.032;2023-05-14T00:34:56;5.43;;;4.30;;
43014;SDS011;28637;50.554;7.032;2023-05-14T00:39:57;8.35;;;4.82;;
43014;SDS011;28637;50.554;7.032;2023-05-14T00:44:58;5.60;;;4.33;;
43014;SDS011;28637;50.554;7.032;2023-05-14T00:49:58;8.03;;;4.60;;
43014;SDS011;28637;50.554;7.032;2023-05-14T00:55:01;9.02;;;5.00;;
43014;SDS011;28637;50.554;7.032;2023-05-14T01:00:04;5.95;;;5.00;;
43014;SDS011;28637;50.554;7.032;2023-05-14T01:05:05;7.35;;;4.70;;
43014;SDS011;28637;50.554;7.032;2023-05-14T01:10:08;5.72;;;4.85;;
43014;SDS011;28637;50.554;7.032;2023-05-14T01:15:14;6.65;;;4.68;;
43014;SDS011;28637;50.554;7.032;2023-05-14T01:20:22;5.82;;;4.20;;
43014;SDS011;28637;50.554;7.032;2023-05-14T01:25:23;8.37;;;4.50;;
43014;SDS011;28637;50.554;7.032;2023-05-14T01:30:27;5.55;;;4.70;;
43014;SDS011;28637;50.554;7.032;2023-05-14T01:35:34;4.90;;;4.40;;
43014;SDS011;28637;50.554;7.032;2023-05-14T01:40:35;8.00;;;5.00;;
43014;SDS011;28637;50.554;7.032;2023-05-14T01:45:36;6.65;;;4.65;;
43014;SDS011;28637;50.554;7.032;2023-05-14T01:50:37;7.17;;;4.13;;
43014;SDS011;28637;50.554;7.032;2023-05-14T01:55:38;4.63;;;4.10;;
43014;SDS011;28637;50.554;7.032;2023-05-14T02:00:38;6.18;;;3.85;;
43014;SDS011;28637;50.554;7.032;2023-05-14T02:05:39;10.37;;;4.17;;
43014;SDS011;28637;50.554;7.032;2023-05-14T02:10:40;4.60;;;4.00;;
43014;SDS011;28637;50.554;7.032;2023-05-14T02:15:40;8.17;;;4.37;;
43014;SDS011;28637;50.554;7.032;2023-05-14T02:20:41;8.05;;;4.15;;
43014;SDS011;28637;50.554;7.032;2023-05-14T02:25:43;7.03;;;4.32;;
43014;SDS011;28637;50.554;7.032;2023-05-14T02:30:44;5.47;;;4.95;;
43014;SDS011;28637;50.554;7.032;2023-05-14T02:35:44;5.47;;;4.73;;
43014;SDS011;28637;50.554;7.032;2023-05-14T02:40:45;5.90;;;4.53;;
43014;SDS011;28637;50.554;7.032;2023-05-14T02:45:45;5.47;;;4.93;;
43014;SDS011;28637;50.554;7.032;2023-05-14T02:50:48;5.30;;;4.43;;
43014;SDS011;28637;50.554;7.032;2023-05-14T02:55:49;6.60;;;4.88;;
43014;SDS011;28637;50.554;7.032;2023-05-14T03:00:50;7.90;;;4.90;;
43014;SDS011;28637;50.554;7.032;2023-05-14T03:05:50;8.80;;;5.10;;
43014;SDS011;28637;50.554;7.032;2023-05-14T03:10:51;4.97;;;4.32;;
43014;SDS011;28637;50.554;7.032;2023-05-14T03:15:52;6.70;;;4.90;;
43014;SDS011;28637;50.554;7.032;2023-05-14T03:20:53;6.80;;;4.68;;
43014;SDS011;28637;50.554;7.032;2023-05-14T03:25:54;6.80;;;4.97;;
43014;SDS011;28637;50.554;7.032;2023-05-14T03:30:55;7.00;;;4.70;;
43014;SDS011;28637;50.554;7.032;2023-05-14T03:35:56;5.68;;;4.82;;
43014;SDS011;28637;50.554;7.032;2023-05-14T03:40:57;6.43;;;5.05;;
43014;SDS011;28637;50.554;7.032;2023-05-14T03:45:57;6.43;;;4.63;;
43014;SDS011;28637;50.554;7.032;2023-05-14T03:50:58;7.95;;;4.50;;
43014;SDS011;28637;50.554;7.032;2023-05-14T03:55:59;37.63;;;5.70;;
43014;SDS011;28637;50.554;7.032;2023-05-14T04:01:00;66.73;;;5.63;;
43014;SDS011;28637;50.554;7.032;2023-05-14T04:06:01;80.00;;;5.40;;
43014;SDS011;28637;50.554;7.032;2023-05-14T04:11:01;5.00;;;4.50;;
43014;SDS011;28637;50.554;7.032;2023-05-14T04:16:02;6.50;;;4.53;;
43014;SDS011;28637;50.554;7.032;2023-05-14T04:21:03;7.50;;;4.70;;
43014;SDS011;28637;50.554;7.032;2023-05-14T04:26:03;5.50;;;4.80;;
43014;SDS011;28637;50.554;7.032;2023-05-14T04:31:04;5.07;;;4.47;;
43014;SDS011;28637;50.554;7.032;2023-05-14T04:36:05;6.05;;;4.93;;
43014;SDS011;28637;50.554;7.032;2023-05-14T04:41:06;9.32;;;5.07;;
43014;SDS011;28637;50.554;7.032;2023-05-14T04:46:06;6.88;;;5.70;;
43014;SDS011;28637;50.554;7.032;2023-05-14T04:51:08;6.88;;;5.40;;
43014;SDS011;28637;50.554;7.032;2023-05-14T04:56:09;5.43;;;4.63;;
43014;SDS011;28637;50.554;7.032;2023-05-14T05:01:09;5.63;;;4.55;;
43014;SDS011;28637;50.554;7.032;2023-05-14T05:06:10;6.93;;;4.60;;
43014;SDS011;28637;50.554;7.032;2023-05-14T05:11:11;9.33;;;4.87;;
43014;SDS011;28637;50.554;7.032;2023-05-14T05:16:11;5.10;;;4.60;;
43014;SDS011;28637;50.554;7.032;2023-05-14T05:21:12;12.63;;;5.35;;
43014;SDS011;28637;50.554;7.032;2023-05-14T05:26:12;7.88;;;5.55;;
43014;SDS011;28637;50.554;7.032;2023-05-14T05:31:13;31.40;;;6.40;;
43014;SDS011;28637;50.554;7.032;2023-05-14T05:36:14;11.33;;;5.43;;
43014;SDS011;28637;50.554;7.032;2023-05-14T05:41:15;27.37;;;5.80;;
43014;SDS011;28637;50.554;7.032;2023-05-14T05:46:15;6.47;;;5.78;;
43014;SDS011;28637;50.554;7.032;2023-05-14T05:51:16;8.23;;;5.65;;
43014;SDS011;28637;50.554;7.032;2023-05-14T05:56:17;6.17;;;5.40;;
43014;SDS011;28637;50.554;7.032;2023-05-14T06:01:17;5.77;;;5.23;;
43014;SDS011;28637;50.554;7.032;2023-05-14T06:06:18;6.93;;;5.33;;
43014;SDS011;28637;50.554;7.032;2023-05-14T06:11:19;7.40;;;5.33;;
43014;SDS011;28637;50.554;7.032;2023-05-14T06:16:20;15.20;;;5.88;;
43014;SDS011;28637;50.554;7.032;2023-05-14T06:21:21;6.83;;;5.63;;
43014;SDS011;28637;50.554;7.032;2023-05-14T06:26:22;6.77;;;6.07;;
43014;SDS011;28637;50.554;7.032;2023-05-14T06:31:22;7.30;;;6.20;;
43014;SDS011;28637;50.554;7.032;2023-05-14T06:36:23;6.80;;;6.10;;
43014;SDS011;28637;50.554;7.032;2023-05-14T06:41:23;8.37;;;6.10;;
43014;SDS011;28637;50.554;7.032;2023-05-14T06:46:25;7.20;;;5.80;;
43014;SDS011;28637;50.554;7.032;2023-05-14T06:51:25;7.67;;;6.07;;
43014;SDS011;28637;50.554;7.032;2023-05-14T06:56:26;7.03;;;6.33;;
43014;SDS011;28637;50.554;7.032;2023-05-14T07:01:26;8.67;;;7.77;;
43014;SDS011;28637;50.554;7.032;2023-05-14T07:06:27;12.10;;;8.83;;
43014;SDS011;28637;50.554;7.032;2023-05-14T07:11:28;13.13;;;8.60;;
43014;SDS011;28637;50.554;7.032;2023-05-14T07:16:28;10.77;;;8.87;;
43014;SDS011;28637;50.554;7.032;2023-05-14T07:21:29;11.57;;;8.63;;
43014;SDS011;28637;50.554;7.032;2023-05-14T07:26:31;12.45;;;8.23;;
43014;SDS011;28637;50.554;7.032;2023-05-14T07:31:32;12.60;;;9.27;;
43014;SDS011;28637;50.554;7.032;2023-05-14T07:36:32;14.17;;;10.20;;
43014;SDS011;28637;50.554;7.032;2023-05-14T07:41:33;14.07;;;11.43;;
43014;SDS011;28637;50.554;7.032;2023-05-14T07:46:34;14.33;;;11.50;;
43014;SDS011;28637;50.554;7.032;2023-05-14T07:51:35;13.65;;;10.35;;
43014;SDS011;28637;50.554;7.032;2023-05-14T07:56:35;12.40;;;9.30;;
43014;SDS011;28637;50.554;7.032;2023-05-14T08:01:36;8.60;;;6.90;;
43014;SDS011;28637;50.554;7.032;2023-05-14T08:06:37;8.77;;;7.87;;
43014;SDS011;28637;50.554;7.032;2023-05-14T08:11:38;8.50;;;7.30;;
43014;SDS011;28637;50.554;7.032;2023-05-14T08:16:39;11.35;;;8.25;;
43014;SDS011;28637;50.554;7.032;2023-05-14T08:21:39;13.17;;;8.30;;
43014;SDS011;28637;50.554;7.032;2023-05-14T08:26:40;8.97;;;6.87;;
43014;SDS011;28637;50.554;7.032;2023-05-14T08:31:41;9.13;;;6.83;;
43014;SDS011;28637;50.554;7.032;2023-05-14T08:36:41;8.30;;;6.50;;
43014;SDS011;28637;50.554;7.032;2023-05-14T08:41:42;7.53;;;6.60;;
43014;SDS011;28637;50.554;7.032;2023-05-14T08:46:44;7.25;;;6.20;;
43014;SDS011;28637;50.554;7.032;2023-05-14T08:51:45;9.00;;;6.65;;
43014;SDS011;28637;50.554;7.032;2023-05-14T08:56:47;8.65;;;6.70;;
43014;SDS011;28637;50.554;7.032;2023-05-14T09:01:49;6.40;;;5.80;;
43014;SDS011;28637;50.554;7.032;2023-05-14T09:06:52;7.43;;;5.55;;
43014;SDS011;28637;50.554;7.032;2023-05-14T09:11:54;6.68;;;5.97;;
43014;SDS011;28637;50.554;7.032;2023-05-14T09:16:54;7.97;;;5.60;;
43014;SDS011;28637;50.554;7.032;2023-05-14T09:21:56;6.40;;;5.60;;
43014;SDS011;28637;50.554;7.032;2023-05-14T09:26:58;7.47;;;6.20;;
43014;SDS011;28637;50.554;7.032;2023-05-14T09:31:59;7.23;;;5.93;;
43014;SDS011;28637;50.554;7.032;2023-05-14T09:37:07;7.00;;;5.82;;
43014;SDS011;28637;50.554;7.032;2023-05-14T09:42:08;7.15;;;6.15;;
43014;SDS011;28637;50.554;7.032;2023-05-14T09:47:09;6.32;;;5.20;;
43014;SDS011;28637;50.554;7.032;2023-05-14T09:52:10;7.23;;;5.33;;
43014;SDS011;28637;50.554;7.032;2023-05-14T09:57:11;6.00;;;5.40;;
43014;SDS011;28637;50.554;7.032;2023-05-14T10:02:30;6.60;;;5.30;;
43014;SDS011;28637;50.554;7.032;2023-05-14T10:07:41;7.88;;;4.90;;
43014;SDS011;28637;50.554;7.032;2023-05-14T10:12:56;6.18;;;4.75;;
43014;SDS011;28637;50.554;7.032;2023-05-14T10:17:59;5.13;;;4.43;;
43014;SDS011;28637;50.554;7.032;2023-05-14T10:23:05;5.47;;;4.45;;
43014;SDS011;28637;50.554;7.032;2023-05-14T10:28:06;5.38;;;4.13;;
43014;SDS011;28637;50.554;7.032;2023-05-14T10:33:08;5.13;;;4.63;;
43014;SDS011;28637;50.554;7.032;2023-05-14T10:38:13;4.50;;;4.10;;
43014;SDS011;28637;50.554;7.032;2023-05-14T10:43:14;4.35;;;3.80;;
43014;SDS011;28637;50.554;7.032;2023-05-14T10:48:16;3.92;;;3.38;;
43014;SDS011;28637;50.554;7.032;2023-05-14T10:53:18;3.65;;;3.25;;
43014;SDS011;28637;50.554;7.032;2023-05-14T10:58:19;3.83;;;3.42;;
43014;SDS011;28637;50.554;7.032;2023-05-14T11:03:20;3.55;;;3.20;;
43014;SDS011;28637;50.554;7.032;2023-05-14T11:08:21;4.65;;;4.10;;
43014;SDS011;28637;50.554;7.032;2023-05-14T11:13:21;4.03;;;3.60;;
43014;SDS011;28637;50.554;7.032;2023-05-14T11:18:28;5.05;;;3.50;;
43014;SDS011;28637;50.554;7.032;2023-05-14T11:23:30;6.05;;;4.25;;
43014;SDS011;28637;50.554;7.032;2023-05-14T11:28:31;5.35;;;3.63;;
43014;SDS011;28637;50.554;7.032;2023-05-14T11:33:32;4.50;;;4.10;;
43014;SDS011;28637;50.554;7.032;2023-05-14T11:38:32;6.28;;;4.03;;
43014;SDS011;28637;50.554;7.032;2023-05-14T11:43:44;5.55;;;4.10;;
43014;SDS011;28637;50.554;7.032;2023-05-14T11:48:45;3.70;;;3.40;;
43014;SDS011;28637;50.554;7.032;2023-05-14T11:53:46;5.20;;;3.53;;
43014;SDS011;28637;50.554;7.032;2023-05-14T11:58:54;4.10;;;3.70;;
43014;SDS011;28637;50.554;7.032;2023-05-14T12:03:58;3.40;;;3.20;;
43014;SDS011;28637;50.554;7.032;2023-05-14T12:08:59;3.95;;;3.05;;
43014;SDS011;28637;50.554;7.032;2023-05-14T12:14:00;4.38;;;3.30;;
43014;SDS011;28637;50.554;7.032;2023-05-14T12:19:09;3.45;;;3.15;;
43014;SDS011;28637;50.554;7.032;2023-05-14T12:24:11;3.70;;;3.40;;
43014;SDS011;28637;50.554;7.032;2023-05-14T12:29:13;3.55;;;3.10;;
43014;SDS011;28637;50.554;7.032;2023-05-14T12:34:15;5.15;;;3.15;;
43014;SDS011;28637;50.554;7.032;2023-05-14T12:39:16;8.85;;;3.35;;
43014;SDS011;28637;50.554;7.032;2023-05-14T12:44:16;3.80;;;3.33;;
43014;SDS011;28637;50.554;7.032;2023-05-14T12:49:18;3.58;;;3.10;;
43014;SDS011;28637;50.554;7.032;2023-05-14T12:54:18;6.70;;;4.40;;
43014;SDS011;28637;50.554;7.032;2023-05-14T12:59:19;5.03;;;4.53;;
43014;SDS011;28637;50.554;7.032;2023-05-14T13:04:20;4.38;;;3.97;;
43014;SDS011;28637;50.554;7.032;2023-05-14T13:09:20;5.30;;;4.17;;
43014;SDS011;28637;50.554;7.032;2023-05-14T13:14:21;9.70;;;8.73;;
43014;SDS011;28637;50.554;7.032;2023-05-14T13:19:21;4.83;;;4.10;;
43014;SDS011;28637;50.554;7.032;2023-05-14T13:24:22;5.50;;;4.55;;
43014;SDS011;28637;50.554;7.032;2023-05-14T13:29:23;4.90;;;4.40;;
43014;SDS011;28637;50.554;7.032;2023-05-14T13:34:28;8.20;;;4.65;;
43014;SDS011;28637;50.554;7.032;2023-05-14T13:39:28;7.55;;;5.72;;
43014;SDS011;28637;50.554;7.032;2023-05-14T13:44:29;8.85;;;7.82;;
43014;SDS011;28637;50.554;7.032;2023-05-14T13:49:30;9.33;;;7.47;;
43014;SDS011;28637;50.554;7.032;2023-05-14T13:54:31;8.33;;;7.00;;
43014;SDS011;28637;50.554;7.032;2023-05-14T13:59:31;7.07;;;6.37;;
43014;SDS011;28637;50.554;7.032;2023-05-14T14:04:32;6.93;;;6.23;;
43014;SDS011;28637;50.554;7.032;2023-05-14T14:09:33;6.80;;;5.65;;
43014;SDS011;28637;50.554;7.032;2023-05-14T14:14:35;9.85;;;6.57;;
43014;SDS011;28637;50.554;7.032;2023-05-14T14:19:36;7.00;;;6.30;;
43014;SDS011;28637;50.554;7.032;2023-05-14T14:24:36;7.83;;;6.03;;
43014;SDS011;28637;50.554;7.032;2023-05-14T14:29:37;8.55;;;6.53;;
43014;SDS011;28637;50.554;7.032;2023-05-14T14:34:38;11.77;;;7.13;;
43014;SDS011;28637;50.554;7.032;2023-05-14T14:39:38;10.27;;;7.00;;
43014;SDS011;28637;50.554;7.032;2023-05-14T14:44:39;7.03;;;6.30;;
43014;SDS011;28637;50.554;7.032;2023-05-14T14:49:40;10.75;;;6.38;;
43014;SDS011;28637;50.554;7.032;2023-05-14T14:54:41;10.43;;;6.40;;
43014;SDS011;28637;50.554;7.032;2023-05-14T14:59:41;10.10;;;7.17;;
43014;SDS011;28637;50.554;7.032;2023-05-14T15:04:42;9.27;;;7.55;;
43014;SDS011;28637;50.554;7.032;2023-05-14T15:09:43;7.47;;;6.70;;
43014;SDS011;28637;50.554;7.032;2023-05-14T15:14:43;10.90;;;7.82;;
43014;SDS011;28637;50.554;7.032;2023-05-14T15:19:44;6.93;;;6.20;;
43014;SDS011;28637;50.554;7.032;2023-05-14T15:24:45;10.27;;;7.05;;
43014;SDS011;28637;50.554;7.032;2023-05-14T15:29:46;8.68;;;6.40;;
43014;SDS011;28637;50.554;7.032;2023-05-14T15:34:46;7.28;;;5.72;;
43014;SDS011;28637;50.554;7.032;2023-05-14T15:39:47;6.72;;;5.25;;
43014;SDS011;28637;50.554;7.032;2023-05-14T15:44:47;5.85;;;5.25;;
43014;SDS011;28637;50.554;7.032;2023-05-14T15:49:48;6.50;;;4.97;;
43014;SDS011;28637;50.554;7.032;2023-05-14T15:54:49;6.38;;;4.80;;
43014;SDS011;28637;50.554;7.032;2023-05-14T16:04:50;6.47;;;4.80;;
43014;SDS011;28637;50.554;7.032;2023-05-14T16:09:51;5.18;;;4.68;;
43014;SDS011;28637;50.554;7.032;2023-05-14T16:14:52;6.45;;;4.97;;
43014;SDS011;28637;50.554;7.032;2023-05-14T16:19:53;7.45;;;4.63;;
43014;SDS011;28637;50.554;7.032;2023-05-14T16:24:54;4.88;;;4.38;;
43014;SDS011;28637;50.554;7.032;2023-05-14T16:29:54;6.43;;;4.53;;
43014;SDS011;28637;50.554;7.032;2023-05-14T16:34:55;4.87;;;4.23;;
43014;SDS011;28637;50.554;7.032;2023-05-14T16:39:56;5.53;;;4.20;;
43014;SDS011;28637;50.554;7.032;2023-05-14T16:44:56;4.47;;;3.53;;
43014;SDS011;28637;50.554;7.032;2023-05-14T16:49:57;4.33;;;3.20;;
43014;SDS011;28637;50.554;7.032;2023-05-14T16:54:57;3.73;;;3.20;;
43014;SDS011;28637;50.554;7.032;2023-05-14T16:59:58;3.15;;;2.70;;
43014;SDS011;28637;50.554;7.032;2023-05-14T17:04:59;2.90;;;2.60;;
43014;SDS011;28637;50.554;7.032;2023-05-14T17:09:59;2.65;;;2.40;;
43014;SDS011;28637;50.554;7.032;2023-05-14T17:15:00;4.40;;;2.50;;
43014;SDS011;28637;50.554;7.032;2023-05-14T17:20:01;3.53;;;2.58;;
43014;SDS011;28637;50.554;7.032;2023-05-14T17:25:04;3.25;;;2.33;;
43014;SDS011;28637;50.554;7.032;2023-05-14T17:30:05;4.68;;;2.60;;
43014;SDS011;28637;50.554;7.032;2023-05-14T17:40:09;5.13;;;2.35;;
43014;SDS011;28637;50.554;7.032;2023-05-14T17:45:10;8.38;;;5.47;;
43014;SDS011;28637;50.554;7.032;2023-05-14T17:50:12;4.90;;;4.40;;
43014;SDS011;28637;50.554;7.032;2023-05-14T17:55:12;8.27;;;6.40;;
43014;SDS011;28637;50.554;7.032;2023-05-14T18:00:13;6.73;;;6.07;;
43014;SDS011;28637;50.554;7.032;2023-05-14T18:05:14;3.97;;;2.90;;
43014;SDS011;28637;50.554;7.032;2023-05-14T18:10:15;4.53;;;2.53;;
43014;SDS011;28637;50.554;7.032;2023-05-14T18:15:15;2.57;;;2.37;;
43014;SDS011;28637;50.554;7.032;2023-05-14T18:20:16;3.37;;;2.33;;
43014;SDS011;28637;50.554;7.032;2023-05-14T18:25:17;2.50;;;2.23;;
43014;SDS011;28637;50.554;7.032;2023-05-14T18:30:17;4.00;;;2.10;;
43014;SDS011;28637;50.554;7.032;2023-05-14T18:35:18;7.00;;;2.53;;
43014;SDS011;28637;50.554;7.032;2023-05-14T18:40:19;2.70;;;2.40;;
43014;SDS011;28637;50.554;7.032;2023-05-14T18:45:19;3.13;;;2.60;;
43014;SDS011;28637;50.554;7.032;2023-05-14T18:50:21;2.95;;;2.58;;
43014;SDS011;28637;50.554;7.032;2023-05-14T18:55:21;5.50;;;2.70;;
43014;SDS011;28637;50.554;7.032;2023-05-14T19:00:22;6.03;;;2.60;;
43014;SDS011;28637;50.554;7.032;2023-05-14T19:05:23;3.20;;;2.40;;
43014;SDS011;28637;50.554;7.032;2023-05-14T19:10:23;5.73;;;2.60;;
43014;SDS011;28637;50.554;7.032;2023-05-14T19:15:24;5.43;;;2.97;;
43014;SDS011;28637;50.554;7.032;2023-05-14T19:20:24;4.37;;;2.83;;
43014;SDS011;28637;50.554;7.032;2023-05-14T19:25:25;5.87;;;2.73;;
43014;SDS011;28637;50.554;7.032;2023-05-14T19:30:26;8.07;;;3.20;;
43014;SDS011;28637;50.554;7.032;2023-05-14T19:35:27;5.10;;;3.00;;
43014;SDS011;28637;50.554;7.032;2023-05-14T19:40:27;3.43;;;3.00;;
43014;SDS011;28637;50.554;7.032;2023-05-14T19:45:28;5.20;;;2.93;;
43014;SDS011;28637;50.554;7.032;2023-05-14T19:50:29;3.37;;;3.07;;
43014;SDS011;28637;50.554;7.032;2023-05-14T19:55:30;3.73;;;3.00;;
43014;SDS011;28637;50.554;7.032;2023-05-14T20:00:30;3.07;;;2.77;;
43014;SDS011;28637;50.554;7.032;2023-05-14T20:05:31;3.90;;;2.67;;
43014;SDS011;28637;50.554;7.032;2023-05-14T20:10:33;2.85;;;2.40;;
43014;SDS011;28637;50.554;7.032;2023-05-14T20:15:33;2.57;;;2.30;;
43014;SDS011;28637;50.554;7.032;2023-05-14T20:20:34;3.07;;;2.30;;
43014;SDS011;28637;50.554;7.032;2023-05-14T20:25:35;3.83;;;2.30;;
43014;SDS011;28637;50.554;7.032;2023-05-14T20:30:36;3.77;;;2.60;;
43014;SDS011;28637;50.554;7.032;2023-05-14T20:35:36;4.57;;;3.47;;
43014;SDS011;28637;50.554;7.032;2023-05-14T20:40:37;5.23;;;2.60;;
43014;SDS011;28637;50.554;7.032;2023-05-14T20:45:38;7.17;;;2.60;;
43014;SDS011;28637;50.554;7.032;2023-05-14T20:50:39;5.13;;;2.67;;
43014;SDS011;28637;50.554;7.032;2023-05-14T20:55:39;4.07;;;2.50;;
43014;SDS011;28637;50.554;7.032;2023-05-14T21:00:40;5.87;;;3.17;;
43014;SDS011;28637;50.554;7.032;2023-05-14T21:05:42;4.82;;;2.50;;
43014;SDS011;28637;50.554;7.032;2023-05-14T21:10:42;4.93;;;2.23;;
43014;SDS011;28637;50.554;7.032;2023-05-14T21:15:43;7.10;;;2.90;;
43014;SDS011;28637;50.554;7.032;2023-05-14T21:20:44;5.67;;;2.40;;
43014;SDS011;28637;50.554;7.032;2023-05-14T21:25:44;4.47;;;2.40;;
43014;SDS011;28637;50.554;7.032;2023-05-14T21:30:45;4.03;;;2.57;;
43014;SDS011;28637;50.554;7.032;2023-05-14T21:35:46;6.50;;;2.33;;
43014;SDS011;28637;50.554;7.032;2023-05-14T21:40:46;4.20;;;2.17;;
43014;SDS011;28637;50.554;7.032;2023-05-14T21:45:47;5.77;;;1.93;;
43014;SDS011;28637;50.554;7.032;2023-05-14T21:50:48;2.23;;;1.80;;
43014;SDS011;28637;50.554;7.032;2023-05-14T21:55:48;3.60;;;2.30;;
43014;SDS011;28637;50.554;7.032;2023-05-14T22:00:49;6.10;;;2.30;;
43014;SDS011;28637;50.554;7.032;2023-05-14T22:05:49;2.40;;;2.20;;
43014;SDS011;28637;50.554;7.032;2023-05-14T22:10:50;3.37;;;2.40;;
43014;SDS011;28637;50.554;7.032;2023-05-14T22:15:51;3.77;;;2.47;;
43014;SDS011;28637;50.554;7.032;2023-05-14T22:20:52;3.00;;;2.80;;
43014;SDS011;28637;50.554;7.032;2023-05-14T22:25:52;3.80;;;2.70;;
43014;SDS011;28637;50.554;7.032;2023-05-14T22:30:53;6.53;;;2.60;;
43014;SDS011;28637;50.554;7.032;2023-05-14T22:35:55;4.32;;;3.30;;
43014;SDS011;28637;50.554;7.032;2023-05-14T22:40:55;4.23;;;3.20;;
43014;SDS011;28637;50.554;7.032;2023-05-14T22:45:56;4.97;;;3.27;;
43014;SDS011;28637;50.554;7.032;2023-05-14T22:50:57;6.07;;;3.43;;
43014;SDS011;28637;50.554;7.032;2023-05-14T22:55:57;7.20;;;3.17;;
43014;SDS011;28637;50.554;7.032;2023-05-14T23:00:58;7.47;;;3.47;;
43014;SDS011;28637;50.554;7.032;2023-05-14T23:05:59;4.17;;;3.33;;
43014;SDS011;28637;50.554;7.032;2023-05-14T23:10:59;5.93;;;3.40;;
43014;SDS011;28637;50.554;7.032;2023-05-14T23:16:00;5.10;;;2.93;;
43014;SDS011;28637;50.554;7.032;2023-05-14T23:21:01;6.20;;;3.43;;
43014;SDS011;28637;50.554;7.032;2023-05-14T23:26:01;5.63;;;3.90;;
43014;SDS011;28637;50.554;7.032;2023-05-14T23:31:02;4.33;;;3.93;;
43014;SDS011;28637;50.554;7.032;2023-05-14T23:36:03;7.10;;;3.80;;
43014;SDS011;28637;50.554;7.032;2023-05-14T23:41:04;9.73;;;4.00;;
43014;SDS011;28637;50.554;7.032;2023-05-14T23:46:04;6.93;;;3.50;;
43014;SDS011;28637;50.554;7.032;2023-05-14T23:51:05;5.07;;;3.50;;
43014;SDS011;28637;50.554;7.032;2023-05-14T23:56:05;4.07;;;3.67;;
